Eppards Point, Illinois
Current Conditions -  °F | °C
As of 4:15 AM on Monday 26 Jan 2015 (Local Time) from KPNT Reporting Station
Clear Clear  
Wind Chill: 10°   Ceiling: Unl
Heat Index: 20°   Visibility: 10mi
Dew Point: 17°   Wind: 9mph
Humidity: 88%   Direction: 330°NNW
Pressure: 29.99"   Gusts: NA
Location:  40.8602°N, 88.6284°W
Report Text: KPNT 261015Z AUTO 33008KT 10SM CLR M06/M08 A2999 RMK AO2 T10641081
Loading
Personal Weather Stations






























Interactive Weather Map New forecast layout! Learn more

10-Day Weather Forecast

Advertisements
Track Severe Weather on mobile